sensor_id;sensor_type;location;lat;lon;timestamp;temperature;humidity
3100;DHT22;1560;52.746;13.474;2023-02-11T00:02:22;2.50;99.90
3100;DHT22;1560;52.746;13.474;2023-02-11T00:04:51;2.60;99.90
3100;DHT22;1560;52.746;13.474;2023-02-11T00:07:20;2.60;99.90
3100;DHT22;1560;52.746;13.474;2023-02-11T00:12:25;2.60;99.90
3100;DHT22;1560;52.746;13.474;2023-02-11T00:14:54;2.60;99.90
3100;DHT22;1560;52.746;13.474;2023-02-11T00:20:00;2.60;99.90
3100;DHT22;1560;52.746;13.474;2023-02-11T00:22:29;2.60;99.90
3100;DHT22;1560;52.746;13.474;2023-02-11T00:24:58;2.70;99.90
3100;DHT22;1560;52.746;13.474;2023-02-11T00:27:27;2.70;99.90
3100;DHT22;1560;52.746;13.474;2023-02-11T00:29:56;2.70;99.90
3100;DHT22;1560;52.746;13.474;2023-02-11T00:32:26;2.70;99.90
3100;DHT22;1560;52.746;13.474;2023-02-11T00:34:55;2.70;99.90
3100;DHT22;1560;52.746;13.474;2023-02-11T00:37:24;2.70;99.90
3100;DHT22;1560;52.746;13.474;2023-02-11T00:39:53;2.70;99.90
3100;DHT22;1560;52.746;13.474;2023-02-11T00:44:58;2.80;99.90
3100;DHT22;1560;52.746;13.474;2023-02-11T00:47:27;2.80;99.90
3100;DHT22;1560;52.746;13.474;2023-02-11T00:52:33;2.80;99.90
3100;DHT22;1560;52.746;13.474;2023-02-11T00:55:02;2.80;99.90
3100;DHT22;1560;52.746;13.474;2023-02-11T01:00:12;2.90;99.90
3100;DHT22;1560;52.746;13.474;2023-02-11T01:05:18;3.00;99.90
3100;DHT22;1560;52.746;13.474;2023-02-11T01:07:48;3.00;99.90
3100;DHT22;1560;52.746;13.474;2023-02-11T01:10:17;2.90;99.90
3100;DHT22;1560;52.746;13.474;2023-02-11T01:15:23;3.00;99.90
3100;DHT22;1560;52.746;13.474;2023-02-11T01:17:52;3.00;99.90
3100;DHT22;1560;52.746;13.474;2023-02-11T01:20:22;3.00;99.90
3100;DHT22;1560;52.746;13.474;2023-02-11T01:25:29;3.10;99.90
3100;DHT22;1560;52.746;13.474;2023-02-11T01:30:35;3.10;99.90
3100;DHT22;1560;52.746;13.474;2023-02-11T01:33:04;3.10;99.90
3100;DHT22;1560;52.746;13.474;2023-02-11T01:35:33;3.10;99.90
3100;DHT22;1560;52.746;13.474;2023-02-11T01:40:39;3.20;99.90
3100;DHT22;1560;52.746;13.474;2023-02-11T01:43:10;3.10;99.90
3100;DHT22;1560;52.746;13.474;2023-02-11T01:45:52;3.20;99.90
3100;DHT22;1560;52.746;13.474;2023-02-11T01:48:24;3.20;99.90
3100;DHT22;1560;52.746;13.474;2023-02-11T01:50:57;3.20;99.90
3100;DHT22;1560;52.746;13.474;2023-02-11T01:53:27;3.20;99.90
3100;DHT22;1560;52.746;13.474;2023-02-11T01:58:54;3.10;99.90
3100;DHT22;1560;52.746;13.474;2023-02-11T02:04:03;3.20;99.90
3100;DHT22;1560;52.746;13.474;2023-02-11T02:09:15;3.20;99.90
3100;DHT22;1560;52.746;13.474;2023-02-11T02:11:44;3.20;99.90
3100;DHT22;1560;52.746;13.474;2023-02-11T02:14:13;3.20;99.90
3100;DHT22;1560;52.746;13.474;2023-02-11T02:19:46;3.10;99.90
3100;DHT22;1560;52.746;13.474;2023-02-11T02:22:58;3.20;99.90
3100;DHT22;1560;52.746;13.474;2023-02-11T02:31:34;3.20;99.90
3100;DHT22;1560;52.746;13.474;2023-02-11T02:36:46;3.20;99.90
3100;DHT22;1560;52.746;13.474;2023-02-11T02:41:55;3.20;99.90
3100;DHT22;1560;52.746;13.474;2023-02-11T02:44:24;3.10;99.90
3100;DHT22;1560;52.746;13.474;2023-02-11T02:46:53;3.20;99.90
3100;DHT22;1560;52.746;13.474;2023-02-11T02:49:22;3.20;99.90
3100;DHT22;1560;52.746;13.474;2023-02-11T02:54:48;3.10;99.90
3100;DHT22;1560;52.746;13.474;2023-02-11T02:57:28;3.10;99.90
3100;DHT22;1560;52.746;13.474;2023-02-11T03:02:49;3.10;99.90
3100;DHT22;1560;52.746;13.474;2023-02-11T03:05:22;3.10;99.90
3100;DHT22;1560;52.746;13.474;2023-02-11T03:10:34;3.10;99.90
3100;DHT22;1560;52.746;13.474;2023-02-11T03:13:05;3.10;99.90
3100;DHT22;1560;52.746;13.474;2023-02-11T03:15:37;3.10;99.90
3100;DHT22;1560;52.746;13.474;2023-02-11T03:20:48;3.10;99.90
3100;DHT22;1560;52.746;13.474;2023-02-11T03:26:01;3.10;99.90
3100;DHT22;1560;52.746;13.474;2023-02-11T03:28:33;3.10;99.90
3100;DHT22;1560;52.746;13.474;2023-02-11T03:31:09;3.10;99.90
3100;DHT22;1560;52.746;13.474;2023-02-11T03:33:40;3.10;99.90
3100;DHT22;1560;52.746;13.474;2023-02-11T03:38:49;3.20;99.90
3100;DHT22;1560;52.746;13.474;2023-02-11T03:41:22;3.20;99.90
3100;DHT22;1560;52.746;13.474;2023-02-11T03:43:53;3.20;99.90
3100;DHT22;1560;52.746;13.474;2023-02-11T03:46:26;3.20;99.90
3100;DHT22;1560;52.746;13.474;2023-02-11T03:48:57;3.20;99.90
3100;DHT22;1560;52.746;13.474;2023-02-11T03:51:29;3.20;99.90
3100;DHT22;1560;52.746;13.474;2023-02-11T03:54:01;3.30;99.90
3100;DHT22;1560;52.746;13.474;2023-02-11T03:56:37;3.30;99.90
3100;DHT22;1560;52.746;13.474;2023-02-11T03:59:05;3.30;99.90
3100;DHT22;1560;52.746;13.474;2023-02-11T04:01:34;3.20;99.90
3100;DHT22;1560;52.746;13.474;2023-02-11T04:04:03;3.30;99.90
3100;DHT22;1560;52.746;13.474;2023-02-11T04:06:32;3.30;99.90
3100;DHT22;1560;52.746;13.474;2023-02-11T04:09:00;3.20;99.90
3100;DHT22;1560;52.746;13.474;2023-02-11T04:11:29;3.30;99.90
3100;DHT22;1560;52.746;13.474;2023-02-11T04:13:58;3.30;99.90
3100;DHT22;1560;52.746;13.474;2023-02-11T04:16:27;3.30;99.90
3100;DHT22;1560;52.746;13.474;2023-02-11T04:18:57;3.30;99.90
3100;DHT22;1560;52.746;13.474;2023-02-11T04:24:03;3.30;99.90
3100;DHT22;1560;52.746;13.474;2023-02-11T04:26:32;3.40;99.90
3100;DHT22;1560;52.746;13.474;2023-02-11T04:29:01;3.40;99.90
3100;DHT22;1560;52.746;13.474;2023-02-11T04:31:30;3.40;99.90
3100;DHT22;1560;52.746;13.474;2023-02-11T04:33:59;3.40;99.90
3100;DHT22;1560;52.746;13.474;2023-02-11T04:36:27;3.40;99.90
3100;DHT22;1560;52.746;13.474;2023-02-11T04:38:56;3.40;99.90
3100;DHT22;1560;52.746;13.474;2023-02-11T04:41:25;3.40;99.90
3100;DHT22;1560;52.746;13.474;2023-02-11T04:43:54;3.40;99.90
3100;DHT22;1560;52.746;13.474;2023-02-11T04:46:22;3.40;99.90
3100;DHT22;1560;52.746;13.474;2023-02-11T04:48:51;3.40;99.90
3100;DHT22;1560;52.746;13.474;2023-02-11T04:51:20;3.40;99.90
3100;DHT22;1560;52.746;13.474;2023-02-11T04:56:25;3.40;99.90
3100;DHT22;1560;52.746;13.474;2023-02-11T04:58:54;3.50;99.90
3100;DHT22;1560;52.746;13.474;2023-02-11T05:01:23;3.40;99.90
3100;DHT22;1560;52.746;13.474;2023-02-11T05:06:28;3.50;99.90
3100;DHT22;1560;52.746;13.474;2023-02-11T05:08:58;3.50;99.90
3100;DHT22;1560;52.746;13.474;2023-02-11T05:14:03;3.50;99.90
3100;DHT22;1560;52.746;13.474;2023-02-11T05:16:32;3.50;99.90
3100;DHT22;1560;52.746;13.474;2023-02-11T05:19:01;3.60;99.90
3100;DHT22;1560;52.746;13.474;2023-02-11T05:21:30;3.60;99.90
3100;DHT22;1560;52.746;13.474;2023-02-11T05:23:59;3.60;99.90
3100;DHT22;1560;52.746;13.474;2023-02-11T05:26:28;3.60;99.90
3100;DHT22;1560;52.746;13.474;2023-02-11T05:28:57;3.60;99.90
3100;DHT22;1560;52.746;13.474;2023-02-11T05:31:25;3.60;99.90
3100;DHT22;1560;52.746;13.474;2023-02-11T05:33:54;3.60;99.90
3100;DHT22;1560;52.746;13.474;2023-02-11T05:36:23;3.60;99.90
3100;DHT22;1560;52.746;13.474;2023-02-11T05:38:52;3.60;99.90
3100;DHT22;1560;52.746;13.474;2023-02-11T05:41:21;3.70;99.90
3100;DHT22;1560;52.746;13.474;2023-02-11T05:43:49;3.70;99.90
3100;DHT22;1560;52.746;13.474;2023-02-11T05:46:19;3.70;99.90
3100;DHT22;1560;52.746;13.474;2023-02-11T05:48:47;3.70;99.90
3100;DHT22;1560;52.746;13.474;2023-02-11T05:53:53;3.70;99.90
3100;DHT22;1560;52.746;13.474;2023-02-11T05:56:22;3.80;99.90
3100;DHT22;1560;52.746;13.474;2023-02-11T05:58:51;3.80;99.90
3100;DHT22;1560;52.746;13.474;2023-02-11T06:01:19;3.90;99.90
3100;DHT22;1560;52.746;13.474;2023-02-11T06:03:48;3.90;99.90
3100;DHT22;1560;52.746;13.474;2023-02-11T06:06:18;3.90;99.90
3100;DHT22;1560;52.746;13.474;2023-02-11T06:08:47;3.90;99.90
3100;DHT22;1560;52.746;13.474;2023-02-11T06:11:16;3.90;99.90
3100;DHT22;1560;52.746;13.474;2023-02-11T06:13:45;3.90;99.90
3100;DHT22;1560;52.746;13.474;2023-02-11T06:16:14;3.90;99.90
3100;DHT22;1560;52.746;13.474;2023-02-11T06:18:43;3.90;99.90
3100;DHT22;1560;52.746;13.474;2023-02-11T06:21:12;3.90;99.90
3100;DHT22;1560;52.746;13.474;2023-02-11T06:26:21;3.90;99.90
3100;DHT22;1560;52.746;13.474;2023-02-11T06:31:26;4.00;99.90
3100;DHT22;1560;52.746;13.474;2023-02-11T06:36:32;4.10;99.90
3100;DHT22;1560;52.746;13.474;2023-02-11T06:39:01;4.10;99.90
3100;DHT22;1560;52.746;13.474;2023-02-11T06:41:30;4.10;99.90
3100;DHT22;1560;52.746;13.474;2023-02-11T06:43:59;4.10;99.90
3100;DHT22;1560;52.746;13.474;2023-02-11T06:46:28;4.10;99.90
3100;DHT22;1560;52.746;13.474;2023-02-11T06:48:57;4.20;99.90
3100;DHT22;1560;52.746;13.474;2023-02-11T06:51:27;4.20;99.90
3100;DHT22;1560;52.746;13.474;2023-02-11T06:56:33;4.20;99.90
3100;DHT22;1560;52.746;13.474;2023-02-11T07:01:39;4.20;99.90
3100;DHT22;1560;52.746;13.474;2023-02-11T07:04:08;4.30;99.90
3100;DHT22;1560;52.746;13.474;2023-02-11T07:06:37;4.20;99.90
3100;DHT22;1560;52.746;13.474;2023-02-11T07:09:06;4.30;99.90
3100;DHT22;1560;52.746;13.474;2023-02-11T07:11:35;4.30;99.90
3100;DHT22;1560;52.746;13.474;2023-02-11T07:14:06;4.30;99.90
3100;DHT22;1560;52.746;13.474;2023-02-11T07:19:13;4.40;99.90
3100;DHT22;1560;52.746;13.474;2023-02-11T07:21:43;4.40;99.90
3100;DHT22;1560;52.746;13.474;2023-02-11T07:24:13;4.40;99.90
3100;DHT22;1560;52.746;13.474;2023-02-11T07:26:45;4.40;99.90
3100;DHT22;1560;52.746;13.474;2023-02-11T07:42:19;4.40;99.90
3100;DHT22;1560;52.746;13.474;2023-02-11T07:47:24;4.60;99.90
3100;DHT22;1560;52.746;13.474;2023-02-11T07:49:53;4.60;99.90
3100;DHT22;1560;52.746;13.474;2023-02-11T07:54:59;4.70;99.90
3100;DHT22;1560;52.746;13.474;2023-02-11T07:57:28;4.60;99.90
3100;DHT22;1560;52.746;13.474;2023-02-11T07:59:57;4.60;99.90
3100;DHT22;1560;52.746;13.474;2023-02-11T08:02:27;4.70;99.90
3100;DHT22;1560;52.746;13.474;2023-02-11T08:04:56;4.80;99.90
3100;DHT22;1560;52.746;13.474;2023-02-11T08:07:24;4.90;99.90
3100;DHT22;1560;52.746;13.474;2023-02-11T08:12:32;4.80;99.90
3100;DHT22;1560;52.746;13.474;2023-02-11T08:15:00;4.80;99.90
3100;DHT22;1560;52.746;13.474;2023-02-11T08:20:08;4.90;99.90
3100;DHT22;1560;52.746;13.474;2023-02-11T08:22:37;4.90;99.90
3100;DHT22;1560;52.746;13.474;2023-02-11T08:25:07;4.90;99.90
3100;DHT22;1560;52.746;13.474;2023-02-11T08:27:35;4.90;99.90
3100;DHT22;1560;52.746;13.474;2023-02-11T08:30:06;5.00;99.90
3100;DHT22;1560;52.746;13.474;2023-02-11T08:35:11;5.10;99.90
3100;DHT22;1560;52.746;13.474;2023-02-11T08:37:41;5.10;99.90
3100;DHT22;1560;52.746;13.474;2023-02-11T08:42:47;5.10;99.90
3100;DHT22;1560;52.746;13.474;2023-02-11T08:45:16;5.10;99.90
3100;DHT22;1560;52.746;13.474;2023-02-11T08:50:22;5.10;99.90
3100;DHT22;1560;52.746;13.474;2023-02-11T08:52:51;5.10;99.90
3100;DHT22;1560;52.746;13.474;2023-02-11T08:55:19;5.10;99.90
3100;DHT22;1560;52.746;13.474;2023-02-11T08:57:48;5.20;99.90
3100;DHT22;1560;52.746;13.474;2023-02-11T09:00:19;5.10;99.90
3100;DHT22;1560;52.746;13.474;2023-02-11T09:02:48;5.10;99.90
3100;DHT22;1560;52.746;13.474;2023-02-11T09:05:17;5.20;99.90
3100;DHT22;1560;52.746;13.474;2023-02-11T09:07:46;5.20;99.90
3100;DHT22;1560;52.746;13.474;2023-02-11T09:10:15;5.20;99.90
3100;DHT22;1560;52.746;13.474;2023-02-11T09:12:44;5.30;99.90
3100;DHT22;1560;52.746;13.474;2023-02-11T09:17:49;5.20;99.90
3100;DHT22;1560;52.746;13.474;2023-02-11T09:20:19;5.30;99.90
3100;DHT22;1560;52.746;13.474;2023-02-11T09:22:48;5.40;99.90
3100;DHT22;1560;52.746;13.474;2023-02-11T09:27:55;5.40;99.90
3100;DHT22;1560;52.746;13.474;2023-02-11T09:30:24;5.40;99.90
3100;DHT22;1560;52.746;13.474;2023-02-11T09:35:29;5.40;99.90
3100;DHT22;1560;52.746;13.474;2023-02-11T09:37:58;5.50;99.90
3100;DHT22;1560;52.746;13.474;2023-02-11T09:43:05;5.50;99.90
3100;DHT22;1560;52.746;13.474;2023-02-11T09:45:36;5.60;99.90
3100;DHT22;1560;52.746;13.474;2023-02-11T09:48:09;5.60;99.90
3100;DHT22;1560;52.746;13.474;2023-02-11T09:50:39;5.60;99.90
3100;DHT22;1560;52.746;13.474;2023-02-11T09:53:13;5.60;99.90
3100;DHT22;1560;52.746;13.474;2023-02-11T09:55:44;5.60;99.90
3100;DHT22;1560;52.746;13.474;2023-02-11T10:00:52;5.60;99.90
3100;DHT22;1560;52.746;13.474;2023-02-11T10:06:40;5.70;99.90
3100;DHT22;1560;52.746;13.474;2023-02-11T10:09:17;5.70;99.90
3100;DHT22;1560;52.746;13.474;2023-02-11T10:14:47;5.70;99.90
3100;DHT22;1560;52.746;13.474;2023-02-11T10:20:07;5.70;99.90
3100;DHT22;1560;52.746;13.474;2023-02-11T10:22:39;5.70;99.90
3100;DHT22;1560;52.746;13.474;2023-02-11T10:25:18;5.70;99.90
3100;DHT22;1560;52.746;13.474;2023-02-11T10:27:47;5.70;99.90
3100;DHT22;1560;52.746;13.474;2023-02-11T10:30:22;5.70;99.90
3100;DHT22;1560;52.746;13.474;2023-02-11T10:32:54;5.70;99.90
3100;DHT22;1560;52.746;13.474;2023-02-11T10:38:01;5.80;99.90
3100;DHT22;1560;52.746;13.474;2023-02-11T10:43:09;5.80;99.90
3100;DHT22;1560;52.746;13.474;2023-02-11T10:45:42;5.80;99.90
3100;DHT22;1560;52.746;13.474;2023-02-11T10:48:37;5.80;99.90
3100;DHT22;1560;52.746;13.474;2023-02-11T10:51:16;5.70;99.90
3100;DHT22;1560;52.746;13.474;2023-02-11T10:53:46;5.70;99.90
3100;DHT22;1560;52.746;13.474;2023-02-11T10:56:19;5.70;99.90
3100;DHT22;1560;52.746;13.474;2023-02-11T11:01:41;5.80;99.90
3100;DHT22;1560;52.746;13.474;2023-02-11T11:04:36;5.80;99.90
3100;DHT22;1560;52.746;13.474;2023-02-11T11:07:14;5.80;99.90
3100;DHT22;1560;52.746;13.474;2023-02-11T11:09:46;5.80;99.90
3100;DHT22;1560;52.746;13.474;2023-02-11T11:12:27;5.80;99.90
3100;DHT22;1560;52.746;13.474;2023-02-11T11:14:58;5.90;99.90
3100;DHT22;1560;52.746;13.474;2023-02-11T11:17:27;5.80;99.90
3100;DHT22;1560;52.746;13.474;2023-02-11T11:20:21;5.90;99.90
3100;DHT22;1560;52.746;13.474;2023-02-11T11:22:52;5.90;99.90
3100;DHT22;1560;52.746;13.474;2023-02-11T11:25:25;5.90;99.90
3100;DHT22;1560;52.746;13.474;2023-02-11T11:27:56;5.90;99.90
3100;DHT22;1560;52.746;13.474;2023-02-11T11:30:30;5.90;99.90
3100;DHT22;1560;52.746;13.474;2023-02-11T11:32:58;5.90;99.90
3100;DHT22;1560;52.746;13.474;2023-02-11T11:38:05;6.00;99.90
3100;DHT22;1560;52.746;13.474;2023-02-11T11:43:17;6.00;99.90
3100;DHT22;1560;52.746;13.474;2023-02-11T11:45:54;6.00;99.90
3100;DHT22;1560;52.746;13.474;2023-02-11T11:48:25;6.00;99.90
3100;DHT22;1560;52.746;13.474;2023-02-11T11:50:57;6.10;99.90
3100;DHT22;1560;52.746;13.474;2023-02-11T11:56:08;6.10;99.90
3100;DHT22;1560;52.746;13.474;2023-02-11T12:01:19;6.10;99.90
3100;DHT22;1560;52.746;13.474;2023-02-11T12:07:16;6.20;99.90
3100;DHT22;1560;52.746;13.474;2023-02-11T12:09:52;6.20;99.90
3100;DHT22;1560;52.746;13.474;2023-02-11T12:15:06;6.10;99.90
3100;DHT22;1560;52.746;13.474;2023-02-11T12:17:47;6.20;99.90
3100;DHT22;1560;52.746;13.474;2023-02-11T12:20:28;6.20;99.90
3100;DHT22;1560;52.746;13.474;2023-02-11T12:23:05;6.20;99.90
3100;DHT22;1560;52.746;13.474;2023-02-11T12:28:21;6.20;99.90
3100;DHT22;1560;52.746;13.474;2023-02-11T12:33:44;6.20;99.90
3100;DHT22;1560;52.746;13.474;2023-02-11T12:36:19;6.20;99.90
3100;DHT22;1560;52.746;13.474;2023-02-11T12:39:01;6.20;99.90
3100;DHT22;1560;52.746;13.474;2023-02-11T12:41:48;6.20;99.90
3100;DHT22;1560;52.746;13.474;2023-02-11T12:44:39;6.30;99.90
3100;DHT22;1560;52.746;13.474;2023-02-11T12:49:55;6.30;99.90
3100;DHT22;1560;52.746;13.474;2023-02-11T12:55:12;6.30;99.90
3100;DHT22;1560;52.746;13.474;2023-02-11T12:57:41;6.20;99.90
3100;DHT22;1560;52.746;13.474;2023-02-11T13:02:58;6.30;99.90
3100;DHT22;1560;52.746;13.474;2023-02-11T13:05:31;6.20;99.90
3100;DHT22;1560;52.746;13.474;2023-02-11T13:08:03;6.20;99.90
3100;DHT22;1560;52.746;13.474;2023-02-11T13:10:34;6.20;99.90
3100;DHT22;1560;52.746;13.474;2023-02-11T13:13:09;6.30;99.90
3100;DHT22;1560;52.746;13.474;2023-02-11T13:15:49;6.20;99.90
3100;DHT22;1560;52.746;13.474;2023-02-11T13:21:00;6.30;99.90
3100;DHT22;1560;52.746;13.474;2023-02-11T13:23:33;6.30;99.90
3100;DHT22;1560;52.746;13.474;2023-02-11T13:26:06;6.30;99.90
3100;DHT22;1560;52.746;13.474;2023-02-11T13:28:40;6.30;99.90
3100;DHT22;1560;52.746;13.474;2023-02-11T13:31:10;6.30;99.90
3100;DHT22;1560;52.746;13.474;2023-02-11T13:33:41;6.30;99.90
3100;DHT22;1560;52.746;13.474;2023-02-11T13:36:16;6.30;99.90
3100;DHT22;1560;52.746;13.474;2023-02-11T13:38:53;6.40;99.90
3100;DHT22;1560;52.746;13.474;2023-02-11T13:41:26;6.40;99.90
3100;DHT22;1560;52.746;13.474;2023-02-11T13:44:12;6.40;99.90
3100;DHT22;1560;52.746;13.474;2023-02-11T13:49:28;6.40;99.90
3100;DHT22;1560;52.746;13.474;2023-02-11T13:51:57;6.30;99.90
3100;DHT22;1560;52.746;13.474;2023-02-11T13:57:34;6.30;99.90
3100;DHT22;1560;52.746;13.474;2023-02-11T14:03:19;6.30;99.90
3100;DHT22;1560;52.746;13.474;2023-02-11T14:06:21;6.30;99.90
3100;DHT22;1560;52.746;13.474;2023-02-11T14:15:09;6.30;99.90
3100;DHT22;1560;52.746;13.474;2023-02-11T14:17:32;6.30;99.90
3100;DHT22;1560;52.746;13.474;2023-02-11T14:20:02;6.30;99.90
3100;DHT22;1560;52.746;13.474;2023-02-11T14:22:41;6.40;99.90
3100;DHT22;1560;52.746;13.474;2023-02-11T14:25:20;6.40;99.90
3100;DHT22;1560;52.746;13.474;2023-02-11T14:27:53;6.30;99.90
3100;DHT22;1560;52.746;13.474;2023-02-11T14:33:32;6.40;99.90
3100;DHT22;1560;52.746;13.474;2023-02-11T14:36:06;6.40;99.90
3100;DHT22;1560;52.746;13.474;2023-02-11T14:38:42;6.40;99.90
3100;DHT22;1560;52.746;13.474;2023-02-11T14:43:49;6.40;99.90
3100;DHT22;1560;52.746;13.474;2023-02-11T14:51:38;6.40;99.90
3100;DHT22;1560;52.746;13.474;2023-02-11T14:54:11;6.40;99.90
3100;DHT22;1560;52.746;13.474;2023-02-11T14:59:20;6.50;99.90
3100;DHT22;1560;52.746;13.474;2023-02-11T15:04:28;6.50;99.90
3100;DHT22;1560;52.746;13.474;2023-02-11T15:07:02;6.50;99.90
3100;DHT22;1560;52.746;13.474;2023-02-11T15:09:31;6.50;99.90
3100;DHT22;1560;52.746;13.474;2023-02-11T15:12:01;6.50;99.90
3100;DHT22;1560;52.746;13.474;2023-02-11T15:17:11;6.50;99.90
3100;DHT22;1560;52.746;13.474;2023-02-11T15:22:20;6.50;99.90
3100;DHT22;1560;52.746;13.474;2023-02-11T15:24:59;6.50;99.90
3100;DHT22;1560;52.746;13.474;2023-02-11T15:27:34;6.50;99.90
3100;DHT22;1560;52.746;13.474;2023-02-11T15:29:58;6.50;99.90
3100;DHT22;1560;52.746;13.474;2023-02-11T15:32:27;6.50;99.90
3100;DHT22;1560;52.746;13.474;2023-02-11T15:34:56;6.50;99.90
3100;DHT22;1560;52.746;13.474;2023-02-11T15:37:28;6.50;99.90
3100;DHT22;1560;52.746;13.474;2023-02-11T15:40:13;6.50;99.90
3100;DHT22;1560;52.746;13.474;2023-02-11T15:42:43;6.50;99.90
3100;DHT22;1560;52.746;13.474;2023-02-11T15:45:20;6.50;99.90
3100;DHT22;1560;52.746;13.474;2023-02-11T15:47:53;6.60;99.90
3100;DHT22;1560;52.746;13.474;2023-02-11T15:50:25;6.60;99.90
3100;DHT22;1560;52.746;13.474;2023-02-11T15:52:55;6.60;99.90
3100;DHT22;1560;52.746;13.474;2023-02-11T15:55:25;6.60;99.90
3100;DHT22;1560;52.746;13.474;2023-02-11T15:57:55;6.60;99.90
3100;DHT22;1560;52.746;13.474;2023-02-11T16:00:29;6.50;99.90
3100;DHT22;1560;52.746;13.474;2023-02-11T16:02:57;6.60;99.90
3100;DHT22;1560;52.746;13.474;2023-02-11T16:05:28;6.50;99.90
3100;DHT22;1560;52.746;13.474;2023-02-11T16:07:59;6.50;99.90
3100;DHT22;1560;52.746;13.474;2023-02-11T16:23:54;6.60;99.90
3100;DHT22;1560;52.746;13.474;2023-02-11T16:29:17;6.50;99.90
3100;DHT22;1560;52.746;13.474;2023-02-11T16:32:03;6.50;99.90
3100;DHT22;1560;52.746;13.474;2023-02-11T16:34:27;6.60;99.90
3100;DHT22;1560;52.746;13.474;2023-02-11T16:37:01;6.50;99.90
3100;DHT22;1560;52.746;13.474;2023-02-11T16:39:37;6.50;99.90
3100;DHT22;1560;52.746;13.474;2023-02-11T17:36:59;6.50;99.90
3100;DHT22;1560;52.746;13.474;2023-02-11T17:54:16;6.40;99.90
3100;DHT22;1560;52.746;13.474;2023-02-11T17:59:18;6.40;99.90
3100;DHT22;1560;52.746;13.474;2023-02-11T18:01:48;6.50;99.90
3100;DHT22;1560;52.746;13.474;2023-02-11T18:04:18;6.50;99.90
3100;DHT22;1560;52.746;13.474;2023-02-11T18:09:24;6.40;99.90
3100;DHT22;1560;52.746;13.474;2023-02-11T18:11:53;6.40;99.90
3100;DHT22;1560;52.746;13.474;2023-02-11T18:14:23;6.40;99.90
3100;DHT22;1560;52.746;13.474;2023-02-11T18:16:52;6.40;99.90
3100;DHT22;1560;52.746;13.474;2023-02-11T18:19:20;6.40;99.90
3100;DHT22;1560;52.746;13.474;2023-02-11T18:21:49;6.40;99.90
3100;DHT22;1560;52.746;13.474;2023-02-11T18:24:18;6.40;99.90
3100;DHT22;1560;52.746;13.474;2023-02-11T18:26:47;6.40;99.90
3100;DHT22;1560;52.746;13.474;2023-02-11T18:29:16;6.40;99.90
3100;DHT22;1560;52.746;13.474;2023-02-11T18:31:45;6.40;99.90
3100;DHT22;1560;52.746;13.474;2023-02-11T18:36:50;6.40;99.90
3100;DHT22;1560;52.746;13.474;2023-02-11T18:39:20;6.40;99.90
3100;DHT22;1560;52.746;13.474;2023-02-11T18:41:50;6.40;99.90
3100;DHT22;1560;52.746;13.474;2023-02-11T18:44:21;6.40;99.90
3100;DHT22;1560;52.746;13.474;2023-02-11T18:49:29;6.40;99.90
3100;DHT22;1560;52.746;13.474;2023-02-11T18:51:59;6.40;99.90
3100;DHT22;1560;52.746;13.474;2023-02-11T18:54:28;6.40;99.90
3100;DHT22;1560;52.746;13.474;2023-02-11T18:56:57;6.40;99.90
3100;DHT22;1560;52.746;13.474;2023-02-11T18:59:26;6.30;99.90
3100;DHT22;1560;52.746;13.474;2023-02-11T19:01:55;6.30;99.90
3100;DHT22;1560;52.746;13.474;2023-02-11T19:04:24;6.30;99.90
3100;DHT22;1560;52.746;13.474;2023-02-11T19:06:53;6.30;99.90
3100;DHT22;1560;52.746;13.474;2023-02-11T19:09:21;6.30;99.90
3100;DHT22;1560;52.746;13.474;2023-02-11T19:11:50;6.30;99.90
3100;DHT22;1560;52.746;13.474;2023-02-11T19:14:22;6.30;99.90
3100;DHT22;1560;52.746;13.474;2023-02-11T19:16:54;6.30;99.90
3100;DHT22;1560;52.746;13.474;2023-02-11T19:19:25;6.30;99.90
3100;DHT22;1560;52.746;13.474;2023-02-11T19:21:55;6.30;99.90
3100;DHT22;1560;52.746;13.474;2023-02-11T19:24:25;6.30;99.90
3100;DHT22;1560;52.746;13.474;2023-02-11T19:26:56;6.30;99.90
3100;DHT22;1560;52.746;13.474;2023-02-11T19:32:03;6.30;99.90
3100;DHT22;1560;52.746;13.474;2023-02-11T19:34:33;6.30;99.90
3100;DHT22;1560;52.746;13.474;2023-02-11T19:37:04;6.30;99.90
3100;DHT22;1560;52.746;13.474;2023-02-11T19:39:33;6.30;99.90
3100;DHT22;1560;52.746;13.474;2023-02-11T19:44:38;6.30;99.90
3100;DHT22;1560;52.746;13.474;2023-02-11T19:47:07;6.30;99.90
3100;DHT22;1560;52.746;13.474;2023-02-11T19:49:36;6.30;99.90
3100;DHT22;1560;52.746;13.474;2023-02-11T19:52:05;6.30;99.90
3100;DHT22;1560;52.746;13.474;2023-02-11T19:57:10;6.30;99.90
3100;DHT22;1560;52.746;13.474;2023-02-11T19:59:39;6.30;99.90
3100;DHT22;1560;52.746;13.474;2023-02-11T20:02:10;6.20;99.90
3100;DHT22;1560;52.746;13.474;2023-02-11T20:04:39;6.30;99.90
3100;DHT22;1560;52.746;13.474;2023-02-11T20:07:08;6.20;99.90
3100;DHT22;1560;52.746;13.474;2023-02-11T20:09:37;6.30;99.90
3100;DHT22;1560;52.746;13.474;2023-02-11T20:14:43;6.30;99.90
3100;DHT22;1560;52.746;13.474;2023-02-11T20:17:12;6.30;99.90
3100;DHT22;1560;52.746;13.474;2023-02-11T20:22:17;6.20;99.90
3100;DHT22;1560;52.746;13.474;2023-02-11T20:24:46;6.20;99.90
3100;DHT22;1560;52.746;13.474;2023-02-11T20:27:15;6.20;99.90
3100;DHT22;1560;52.746;13.474;2023-02-11T20:29:44;6.20;99.90
3100;DHT22;1560;52.746;13.474;2023-02-11T20:32:14;6.20;99.90
3100;DHT22;1560;52.746;13.474;2023-02-11T20:34:43;6.20;99.90
3100;DHT22;1560;52.746;13.474;2023-02-11T20:37:11;6.30;99.90
3100;DHT22;1560;52.746;13.474;2023-02-11T20:42:17;6.20;99.90
3100;DHT22;1560;52.746;13.474;2023-02-11T20:44:46;6.20;99.90
3100;DHT22;1560;52.746;13.474;2023-02-11T20:47:15;6.20;99.90
3100;DHT22;1560;52.746;13.474;2023-02-11T20:49:44;6.20;99.90
3100;DHT22;1560;52.746;13.474;2023-02-11T20:52:13;6.20;99.90
3100;DHT22;1560;52.746;13.474;2023-02-11T20:57:18;6.10;99.90
3100;DHT22;1560;52.746;13.474;2023-02-11T20:59:47;6.10;99.90
3100;DHT22;1560;52.746;13.474;2023-02-11T21:02:15;6.10;99.90
3100;DHT22;1560;52.746;13.474;2023-02-11T21:04:44;6.10;99.90
3100;DHT22;1560;52.746;13.474;2023-02-11T21:07:13;6.20;99.90
3100;DHT22;1560;52.746;13.474;2023-02-11T21:09:42;6.20;99.90
3100;DHT22;1560;52.746;13.474;2023-02-11T21:14:47;6.20;99.90
3100;DHT22;1560;52.746;13.474;2023-02-11T21:17:16;6.20;99.90
3100;DHT22;1560;52.746;13.474;2023-02-11T21:19:45;6.20;99.90
3100;DHT22;1560;52.746;13.474;2023-02-11T21:24:50;6.20;99.90
3100;DHT22;1560;52.746;13.474;2023-02-11T21:29:59;6.10;99.90
3100;DHT22;1560;52.746;13.474;2023-02-11T21:32:28;6.10;99.90
3100;DHT22;1560;52.746;13.474;2023-02-11T21:34:57;6.20;99.90
3100;DHT22;1560;52.746;13.474;2023-02-11T21:37:26;6.20;99.90
3100;DHT22;1560;52.746;13.474;2023-02-11T21:39:54;6.10;99.90
3100;DHT22;1560;52.746;13.474;2023-02-11T21:42:23;6.10;99.90
3100;DHT22;1560;52.746;13.474;2023-02-11T21:44:52;6.10;99.90
3100;DHT22;1560;52.746;13.474;2023-02-11T21:47:21;6.10;99.90
3100;DHT22;1560;52.746;13.474;2023-02-11T21:52:26;6.10;99.90
3100;DHT22;1560;52.746;13.474;2023-02-11T21:54:55;6.10;99.90
3100;DHT22;1560;52.746;13.474;2023-02-11T21:57:24;6.10;99.90
3100;DHT22;1560;52.746;13.474;2023-02-11T22:02:31;6.10;99.90
3100;DHT22;1560;52.746;13.474;2023-02-11T22:05:00;6.10;99.90
3100;DHT22;1560;52.746;13.474;2023-02-11T22:10:08;6.10;99.90
3100;DHT22;1560;52.746;13.474;2023-02-11T22:12:37;6.10;99.90
3100;DHT22;1560;52.746;13.474;2023-02-11T22:15:08;6.20;99.90
3100;DHT22;1560;52.746;13.474;2023-02-11T22:20:13;6.10;99.90
3100;DHT22;1560;52.746;13.474;2023-02-11T22:22:43;6.10;99.90
3100;DHT22;1560;52.746;13.474;2023-02-11T22:25:12;6.10;99.90